sensor_id;sensor_type;location;lat;lon;timestamp;P1;durP1;ratioP1;P2;durP2;ratioP2
2061;SDS011;11070;51.336;12.340;2023-06-22T00:00:50;14.57;;;13.17;;
2061;SDS011;11070;51.336;12.340;2023-06-22T00:03:20;15.20;;;13.90;;
2061;SDS011;11070;51.336;12.340;2023-06-22T00:05:47;14.27;;;12.97;;
2061;SDS011;11070;51.336;12.340;2023-06-22T00:08:14;14.37;;;13.07;;
2061;SDS011;11070;51.336;12.340;2023-06-22T00:10:40;17.13;;;15.40;;
2061;SDS011;11070;51.336;12.340;2023-06-22T00:13:06;14.37;;;13.07;;
2061;SDS011;11070;51.336;12.340;2023-06-22T00:15:33;15.03;;;13.73;;
2061;SDS011;11070;51.336;12.340;2023-06-22T00:17:59;15.43;;;13.93;;
2061;SDS011;11070;51.336;12.340;2023-06-22T00:20:25;15.47;;;14.07;;
2061;SDS011;11070;51.336;12.340;2023-06-22T00:22:55;14.87;;;13.50;;
2061;SDS011;11070;51.336;12.340;2023-06-22T00:25:21;16.03;;;14.43;;
2061;SDS011;11070;51.336;12.340;2023-06-22T00:27:47;16.70;;;14.80;;
2061;SDS011;11070;51.336;12.340;2023-06-22T00:30:14;15.87;;;14.37;;
2061;SDS011;11070;51.336;12.340;2023-06-22T00:32:41;15.00;;;13.50;;
2061;SDS011;11070;51.336;12.340;2023-06-22T00:35:07;16.10;;;14.47;;
2061;SDS011;11070;51.336;12.340;2023-06-22T00:37:34;15.80;;;14.30;;
2061;SDS011;11070;51.336;12.340;2023-06-22T00:40:00;16.10;;;14.60;;
2061;SDS011;11070;51.336;12.340;2023-06-22T00:42:27;16.70;;;15.07;;
2061;SDS011;11070;51.336;12.340;2023-06-22T00:44:52;17.00;;;15.50;;
2061;SDS011;11070;51.336;12.340;2023-06-22T00:47:18;16.77;;;15.27;;
2061;SDS011;11070;51.336;12.340;2023-06-22T00:49:44;16.87;;;15.37;;
2061;SDS011;11070;51.336;12.340;2023-06-22T00:52:12;16.00;;;14.50;;
2061;SDS011;11070;51.336;12.340;2023-06-22T00:54:47;17.40;;;15.80;;
2061;SDS011;11070;51.336;12.340;2023-06-22T00:57:14;16.50;;;15.00;;
2061;SDS011;11070;51.336;12.340;2023-06-22T00:59:43;14.82;;;13.40;;
2061;SDS011;11070;51.336;12.340;2023-06-22T01:02:10;17.15;;;15.55;;
2061;SDS011;11070;51.336;12.340;2023-06-22T01:04:36;17.60;;;15.90;;
2061;SDS011;11070;51.336;12.340;2023-06-22T01:10:21;16.03;;;14.60;;
2061;SDS011;11070;51.336;12.340;2023-06-22T01:12:58;17.83;;;16.10;;
2061;SDS011;11070;51.336;12.340;2023-06-22T01:15:31;16.85;;;15.25;;
2061;SDS011;11070;51.336;12.340;2023-06-22T01:18:18;17.92;;;16.15;;
2061;SDS011;11070;51.336;12.340;2023-06-22T01:20:46;16.85;;;15.27;;
2061;SDS011;11070;51.336;12.340;2023-06-22T01:23:29;16.33;;;14.70;;
2061;SDS011;11070;51.336;12.340;2023-06-22T01:26:08;16.10;;;14.55;;
2061;SDS011;11070;51.336;12.340;2023-06-22T01:28:48;18.85;;;15.00;;
2061;SDS011;11070;51.336;12.340;2023-06-22T01:31:17;16.38;;;14.70;;
2061;SDS011;11070;51.336;12.340;2023-06-22T01:33:47;18.88;;;17.23;;
2061;SDS011;11070;51.336;12.340;2023-06-22T01:36:16;17.67;;;15.98;;
2061;SDS011;11070;51.336;12.340;2023-06-22T01:38:42;17.10;;;15.60;;
2061;SDS011;11070;51.336;12.340;2023-06-22T01:41:10;16.90;;;15.20;;
2061;SDS011;11070;51.336;12.340;2023-06-22T01:43:37;16.90;;;15.30;;
2061;SDS011;11070;51.336;12.340;2023-06-22T01:46:03;17.38;;;15.77;;
2061;SDS011;11070;51.336;12.340;2023-06-22T01:48:29;18.03;;;16.00;;
2061;SDS011;11070;51.336;12.340;2023-06-22T01:50:56;17.23;;;15.48;;
2061;SDS011;11070;51.336;12.340;2023-06-22T01:53:22;17.27;;;15.57;;
2061;SDS011;11070;51.336;12.340;2023-06-22T01:55:48;17.02;;;15.43;;
2061;SDS011;11070;51.336;12.340;2023-06-22T01:58:14;17.80;;;16.10;;
2061;SDS011;11070;51.336;12.340;2023-06-22T02:00:41;17.80;;;16.00;;
2061;SDS011;11070;51.336;12.340;2023-06-22T02:03:13;18.15;;;16.33;;
2061;SDS011;11070;51.336;12.340;2023-06-22T02:05:50;17.77;;;16.27;;
2061;SDS011;11070;51.336;12.340;2023-06-22T02:08:28;17.23;;;15.45;;
2061;SDS011;11070;51.336;12.340;2023-06-22T02:10:57;18.45;;;16.65;;
2061;SDS011;11070;51.336;12.340;2023-06-22T02:13:24;16.52;;;15.07;;
2061;SDS011;11070;51.336;12.340;2023-06-22T02:15:50;18.40;;;16.65;;
2061;SDS011;11070;51.336;12.340;2023-06-22T02:18:16;17.80;;;16.13;;
2061;SDS011;11070;51.336;12.340;2023-06-22T02:20:42;18.43;;;16.63;;
2061;SDS011;11070;51.336;12.340;2023-06-22T02:23:08;18.03;;;16.33;;
2061;SDS011;11070;51.336;12.340;2023-06-22T02:25:34;18.40;;;16.50;;
2061;SDS011;11070;51.336;12.340;2023-06-22T02:28:00;18.45;;;16.77;;
2061;SDS011;11070;51.336;12.340;2023-06-22T02:30:26;19.50;;;17.33;;
2061;SDS011;11070;51.336;12.340;2023-06-22T02:32:52;20.23;;;18.33;;
2061;SDS011;11070;51.336;12.340;2023-06-22T02:35:32;21.83;;;19.52;;
2061;SDS011;11070;51.336;12.340;2023-06-22T02:38:00;19.52;;;17.73;;
2061;SDS011;11070;51.336;12.340;2023-06-22T02:40:30;20.80;;;18.80;;
2061;SDS011;11070;51.336;12.340;2023-06-22T02:42:57;19.48;;;17.48;;
2061;SDS011;11070;51.336;12.340;2023-06-22T02:45:26;19.20;;;17.35;;
2061;SDS011;11070;51.336;12.340;2023-06-22T02:47:52;18.63;;;16.97;;
2061;SDS011;11070;51.336;12.340;2023-06-22T02:50:18;21.97;;;19.57;;
2061;SDS011;11070;51.336;12.340;2023-06-22T02:52:43;20.33;;;18.43;;
2061;SDS011;11070;51.336;12.340;2023-06-22T02:55:09;19.37;;;17.50;;
2061;SDS011;11070;51.336;12.340;2023-06-22T02:57:34;20.27;;;18.47;;
2061;SDS011;11070;51.336;12.340;2023-06-22T03:00:01;19.27;;;17.23;;
2061;SDS011;11070;51.336;12.340;2023-06-22T03:02:37;18.33;;;16.73;;
2061;SDS011;11070;51.336;12.340;2023-06-22T03:05:03;21.47;;;19.50;;
2061;SDS011;11070;51.336;12.340;2023-06-22T03:07:29;19.63;;;17.83;;
2061;SDS011;11070;51.336;12.340;2023-06-22T03:09:55;19.25;;;17.45;;
2061;SDS011;11070;51.336;12.340;2023-06-22T03:12:20;18.50;;;16.60;;
2061;SDS011;11070;51.336;12.340;2023-06-22T03:14:46;19.63;;;17.67;;
2061;SDS011;11070;51.336;12.340;2023-06-22T03:17:12;20.60;;;18.50;;
2061;SDS011;11070;51.336;12.340;2023-06-22T03:19:37;19.27;;;17.50;;
2061;SDS011;11070;51.336;12.340;2023-06-22T03:22:03;19.57;;;17.67;;
2061;SDS011;11070;51.336;12.340;2023-06-22T03:24:29;19.40;;;17.50;;
2061;SDS011;11070;51.336;12.340;2023-06-22T03:26:55;18.20;;;16.50;;
2061;SDS011;11070;51.336;12.340;2023-06-22T03:29:21;18.13;;;16.42;;
2061;SDS011;11070;51.336;12.340;2023-06-22T03:31:48;20.98;;;19.08;;
2061;SDS011;11070;51.336;12.340;2023-06-22T03:34:14;18.37;;;16.67;;
2061;SDS011;11070;51.336;12.340;2023-06-22T03:36:40;19.63;;;17.73;;
2061;SDS011;11070;51.336;12.340;2023-06-22T03:39:05;18.57;;;16.87;;
2061;SDS011;11070;51.336;12.340;2023-06-22T03:41:31;19.00;;;17.30;;
2061;SDS011;11070;51.336;12.340;2023-06-22T03:43:56;19.53;;;17.63;;
2061;SDS011;11070;51.336;12.340;2023-06-22T03:46:22;18.40;;;16.67;;
2061;SDS011;11070;51.336;12.340;2023-06-22T03:48:49;20.45;;;18.40;;
2061;SDS011;11070;51.336;12.340;2023-06-22T03:51:15;20.00;;;18.03;;
2061;SDS011;11070;51.336;12.340;2023-06-22T03:53:43;19.73;;;17.93;;
2061;SDS011;11070;51.336;12.340;2023-06-22T03:56:09;19.50;;;17.65;;
2061;SDS011;11070;51.336;12.340;2023-06-22T03:58:34;19.03;;;17.23;;
2061;SDS011;11070;51.336;12.340;2023-06-22T04:01:01;20.55;;;18.55;;
2061;SDS011;11070;51.336;12.340;2023-06-22T04:03:27;22.70;;;20.40;;
2061;SDS011;11070;51.336;12.340;2023-06-22T04:05:53;23.90;;;21.60;;
2061;SDS011;11070;51.336;12.340;2023-06-22T04:08:18;21.47;;;19.47;;
2061;SDS011;11070;51.336;12.340;2023-06-22T04:10:45;22.48;;;20.48;;
2061;SDS011;11070;51.336;12.340;2023-06-22T04:13:11;22.70;;;20.63;;
2061;SDS011;11070;51.336;12.340;2023-06-22T04:15:36;22.13;;;20.13;;
2061;SDS011;11070;51.336;12.340;2023-06-22T04:18:02;21.70;;;19.60;;
2061;SDS011;11070;51.336;12.340;2023-06-22T04:20:28;21.30;;;19.07;;
2061;SDS011;11070;51.336;12.340;2023-06-22T04:22:53;20.43;;;18.63;;
2061;SDS011;11070;51.336;12.340;2023-06-22T04:25:19;20.97;;;18.73;;
2061;SDS011;11070;51.336;12.340;2023-06-22T04:27:46;21.25;;;19.17;;
2061;SDS011;11070;51.336;12.340;2023-06-22T04:30:12;19.83;;;17.90;;
2061;SDS011;11070;51.336;12.340;2023-06-22T04:32:40;22.47;;;20.37;;
2061;SDS011;11070;51.336;12.340;2023-06-22T04:35:06;22.20;;;20.10;;
2061;SDS011;11070;51.336;12.340;2023-06-22T04:37:32;23.97;;;21.57;;
2061;SDS011;11070;51.336;12.340;2023-06-22T04:39:58;24.10;;;21.70;;
2061;SDS011;11070;51.336;12.340;2023-06-22T04:42:27;24.00;;;21.67;;
2061;SDS011;11070;51.336;12.340;2023-06-22T04:44:53;24.42;;;22.08;;
2061;SDS011;11070;51.336;12.340;2023-06-22T04:47:19;29.60;;;23.80;;
2061;SDS011;11070;51.336;12.340;2023-06-22T04:49:45;26.50;;;23.93;;
2061;SDS011;11070;51.336;12.340;2023-06-22T04:52:12;24.60;;;22.30;;
2061;SDS011;11070;51.336;12.340;2023-06-22T04:54:39;24.88;;;22.40;;
2061;SDS011;11070;51.336;12.340;2023-06-22T04:57:12;26.50;;;23.88;;
2061;SDS011;11070;51.336;12.340;2023-06-22T04:59:39;25.85;;;23.23;;
2061;SDS011;11070;51.336;12.340;2023-06-22T05:02:06;24.77;;;22.20;;
2061;SDS011;11070;51.336;12.340;2023-06-22T05:04:32;23.85;;;21.52;;
2061;SDS011;11070;51.336;12.340;2023-06-22T05:07:00;22.55;;;20.35;;
2061;SDS011;11070;51.336;12.340;2023-06-22T05:09:26;23.40;;;21.30;;
2061;SDS011;11070;51.336;12.340;2023-06-22T05:11:52;22.42;;;20.05;;
2061;SDS011;11070;51.336;12.340;2023-06-22T05:14:18;22.60;;;20.43;;
2061;SDS011;11070;51.336;12.340;2023-06-22T05:16:44;23.65;;;21.25;;
2061;SDS011;11070;51.336;12.340;2023-06-22T05:19:11;22.95;;;20.70;;
2061;SDS011;11070;51.336;12.340;2023-06-22T05:21:36;21.23;;;19.23;;
2061;SDS011;11070;51.336;12.340;2023-06-22T05:24:05;21.47;;;19.30;;
2061;SDS011;11070;51.336;12.340;2023-06-22T05:26:31;21.63;;;19.43;;
2061;SDS011;11070;51.336;12.340;2023-06-22T05:28:59;21.90;;;19.67;;
2061;SDS011;11070;51.336;12.340;2023-06-22T05:31:26;21.30;;;19.07;;
2061;SDS011;11070;51.336;12.340;2023-06-22T05:33:53;19.77;;;17.87;;
2061;SDS011;11070;51.336;12.340;2023-06-22T05:36:19;22.40;;;18.93;;
2061;SDS011;11070;51.336;12.340;2023-06-22T05:38:46;21.90;;;19.80;;
2061;SDS011;11070;51.336;12.340;2023-06-22T05:41:12;19.93;;;17.93;;
2061;SDS011;11070;51.336;12.340;2023-06-22T05:43:42;21.53;;;19.50;;
2061;SDS011;11070;51.336;12.340;2023-06-22T05:46:08;20.80;;;18.97;;
2061;SDS011;11070;51.336;12.340;2023-06-22T05:48:33;20.80;;;18.90;;
2061;SDS011;11070;51.336;12.340;2023-06-22T05:50:59;20.63;;;18.53;;
2061;SDS011;11070;51.336;12.340;2023-06-22T05:53:25;19.63;;;17.53;;
2061;SDS011;11070;51.336;12.340;2023-06-22T05:55:50;18.97;;;17.07;;
2061;SDS011;11070;51.336;12.340;2023-06-22T05:58:16;25.13;;;18.50;;
2061;SDS011;11070;51.336;12.340;2023-06-22T06:00:42;19.10;;;17.40;;
2061;SDS011;11070;51.336;12.340;2023-06-22T06:03:08;18.80;;;16.80;;
2061;SDS011;11070;51.336;12.340;2023-06-22T06:05:35;18.53;;;16.63;;
2061;SDS011;11070;51.336;12.340;2023-06-22T06:08:03;17.00;;;15.50;;
2061;SDS011;11070;51.336;12.340;2023-06-22T06:10:30;17.43;;;15.73;;
2061;SDS011;11070;51.336;12.340;2023-06-22T06:12:57;19.47;;;15.47;;
2061;SDS011;11070;51.336;12.340;2023-06-22T06:15:23;18.63;;;16.67;;
2061;SDS011;11070;51.336;12.340;2023-06-22T06:17:49;16.70;;;15.00;;
2061;SDS011;11070;51.336;12.340;2023-06-22T06:20:17;17.17;;;15.37;;
2061;SDS011;11070;51.336;12.340;2023-06-22T06:22:44;17.53;;;15.73;;
2061;SDS011;11070;51.336;12.340;2023-06-22T06:25:10;17.33;;;15.63;;
2061;SDS011;11070;51.336;12.340;2023-06-22T06:27:40;19.80;;;15.53;;
2061;SDS011;11070;51.336;12.340;2023-06-22T06:30:11;16.17;;;14.57;;
2061;SDS011;11070;51.336;12.340;2023-06-22T06:32:37;15.70;;;14.13;;
2061;SDS011;11070;51.336;12.340;2023-06-22T06:35:07;15.00;;;13.50;;
2061;SDS011;11070;51.336;12.340;2023-06-22T06:37:38;18.00;;;15.40;;
2061;SDS011;11070;51.336;12.340;2023-06-22T06:40:06;15.53;;;14.03;;
2061;SDS011;11070;51.336;12.340;2023-06-22T06:42:35;17.93;;;14.23;;
2061;SDS011;11070;51.336;12.340;2023-06-22T06:45:07;15.63;;;14.13;;
2061;SDS011;11070;51.336;12.340;2023-06-22T06:47:33;15.57;;;13.97;;
2061;SDS011;11070;51.336;12.340;2023-06-22T06:49:59;15.27;;;13.87;;
2061;SDS011;11070;51.336;12.340;2023-06-22T06:52:25;15.33;;;13.73;;
2061;SDS011;11070;51.336;12.340;2023-06-22T06:54:51;15.20;;;13.30;;
2061;SDS011;11070;51.336;12.340;2023-06-22T06:57:17;18.87;;;13.67;;
2061;SDS011;11070;51.336;12.340;2023-06-22T06:59:43;13.53;;;12.43;;
2061;SDS011;11070;51.336;12.340;2023-06-22T07:02:09;14.97;;;13.47;;
2061;SDS011;11070;51.336;12.340;2023-06-22T07:04:35;13.93;;;12.73;;
2061;SDS011;11070;51.336;12.340;2023-06-22T07:07:01;14.20;;;12.90;;
2061;SDS011;11070;51.336;12.340;2023-06-22T07:09:28;14.87;;;13.50;;
2061;SDS011;11070;51.336;12.340;2023-06-22T07:11:53;12.87;;;11.80;;
2061;SDS011;11070;51.336;12.340;2023-06-22T07:14:19;14.13;;;12.97;;
2061;SDS011;11070;51.336;12.340;2023-06-22T07:16:45;14.47;;;13.23;;
2061;SDS011;11070;51.336;12.340;2023-06-22T07:19:13;14.47;;;13.27;;
2061;SDS011;11070;51.336;12.340;2023-06-22T07:21:39;14.13;;;12.93;;
2061;SDS011;11070;51.336;12.340;2023-06-22T07:24:05;14.10;;;13.00;;
2061;SDS011;11070;51.336;12.340;2023-06-22T07:26:31;15.53;;;12.97;;
2061;SDS011;11070;51.336;12.340;2023-06-22T07:28:57;13.40;;;12.30;;
2061;SDS011;11070;51.336;12.340;2023-06-22T07:31:26;13.57;;;12.30;;
2061;SDS011;11070;51.336;12.340;2023-06-22T07:33:52;14.57;;;13.37;;
2061;SDS011;11070;51.336;12.340;2023-06-22T07:36:17;13.63;;;12.33;;
2061;SDS011;11070;51.336;12.340;2023-06-22T07:38:43;14.00;;;12.57;;
2061;SDS011;11070;51.336;12.340;2023-06-22T07:41:09;14.27;;;13.07;;
2061;SDS011;11070;51.336;12.340;2023-06-22T07:43:35;13.60;;;12.20;;
2061;SDS011;11070;51.336;12.340;2023-06-22T07:46:05;12.40;;;11.40;;
2061;SDS011;11070;51.336;12.340;2023-06-22T07:48:31;15.80;;;12.13;;
2061;SDS011;11070;51.336;12.340;2023-06-22T07:50:56;13.30;;;12.13;;
2061;SDS011;11070;51.336;12.340;2023-06-22T07:53:22;13.10;;;11.93;;
2061;SDS011;11070;51.336;12.340;2023-06-22T07:55:48;12.90;;;11.67;;
2061;SDS011;11070;51.336;12.340;2023-06-22T07:58:14;14.17;;;12.77;;
2061;SDS011;11070;51.336;12.340;2023-06-22T08:00:40;13.33;;;12.30;;
2061;SDS011;11070;51.336;12.340;2023-06-22T08:03:06;13.60;;;12.30;;
2061;SDS011;11070;51.336;12.340;2023-06-22T08:05:32;12.93;;;11.67;;
2061;SDS011;11070;51.336;12.340;2023-06-22T08:07:58;14.60;;;11.70;;
2061;SDS011;11070;51.336;12.340;2023-06-22T08:10:23;12.67;;;11.67;;
2061;SDS011;11070;51.336;12.340;2023-06-22T08:12:49;14.17;;;12.00;;
2061;SDS011;11070;51.336;12.340;2023-06-22T08:15:16;13.20;;;12.10;;
2061;SDS011;11070;51.336;12.340;2023-06-22T08:17:43;11.83;;;10.93;;
2061;SDS011;11070;51.336;12.340;2023-06-22T08:20:09;13.00;;;11.70;;
2061;SDS011;11070;51.336;12.340;2023-06-22T08:22:39;11.77;;;10.87;;
2061;SDS011;11070;51.336;12.340;2023-06-22T08:25:05;11.67;;;10.63;;
2061;SDS011;11070;51.336;12.340;2023-06-22T08:27:32;11.77;;;10.67;;
2061;SDS011;11070;51.336;12.340;2023-06-22T08:29:58;11.87;;;10.67;;
2061;SDS011;11070;51.336;12.340;2023-06-22T08:32:25;11.93;;;10.90;;
2061;SDS011;11070;51.336;12.340;2023-06-22T08:34:55;11.67;;;10.60;;
2061;SDS011;11070;51.336;12.340;2023-06-22T08:37:22;13.60;;;11.60;;
2061;SDS011;11070;51.336;12.340;2023-06-22T08:39:55;12.77;;;11.47;;
2061;SDS011;11070;51.336;12.340;2023-06-22T08:42:24;11.77;;;10.87;;
2061;SDS011;11070;51.336;12.340;2023-06-22T08:44:51;12.00;;;10.63;;
2061;SDS011;11070;51.336;12.340;2023-06-22T08:47:16;12.60;;;11.60;;
2061;SDS011;11070;51.336;12.340;2023-06-22T08:49:42;12.53;;;11.37;;
2061;SDS011;11070;51.336;12.340;2023-06-22T08:52:08;12.43;;;11.33;;
2061;SDS011;11070;51.336;12.340;2023-06-22T08:54:33;13.30;;;12.10;;
2061;SDS011;11070;51.336;12.340;2023-06-22T08:57:00;12.20;;;11.20;;
2061;SDS011;11070;51.336;12.340;2023-06-22T08:59:26;11.30;;;10.40;;
2061;SDS011;11070;51.336;12.340;2023-06-22T09:01:52;12.53;;;11.17;;
2061;SDS011;11070;51.336;12.340;2023-06-22T09:04:18;12.23;;;11.23;;
2061;SDS011;11070;51.336;12.340;2023-06-22T09:06:47;11.50;;;10.60;;
2061;SDS011;11070;51.336;12.340;2023-06-22T09:09:13;10.00;;;9.20;;
2061;SDS011;11070;51.336;12.340;2023-06-22T09:11:41;10.67;;;9.77;;
2061;SDS011;11070;51.336;12.340;2023-06-22T09:14:08;11.43;;;10.50;;
2061;SDS011;11070;51.336;12.340;2023-06-22T09:16:34;10.50;;;9.60;;
2061;SDS011;11070;51.336;12.340;2023-06-22T09:19:00;11.27;;;10.30;;
2061;SDS011;11070;51.336;12.340;2023-06-22T09:21:26;10.50;;;9.50;;
2061;SDS011;11070;51.336;12.340;2023-06-22T09:23:52;10.50;;;9.67;;
2061;SDS011;11070;51.336;12.340;2023-06-22T09:26:18;8.80;;;8.00;;
2061;SDS011;11070;51.336;12.340;2023-06-22T09:28:44;9.50;;;8.50;;
2061;SDS011;11070;51.336;12.340;2023-06-22T09:31:09;9.93;;;9.10;;
2061;SDS011;11070;51.336;12.340;2023-06-22T09:33:35;10.23;;;9.53;;
2061;SDS011;11070;51.336;12.340;2023-06-22T09:36:03;9.97;;;9.00;;
2061;SDS011;11070;51.336;12.340;2023-06-22T09:38:34;9.93;;;9.23;;
2061;SDS011;11070;51.336;12.340;2023-06-22T09:41:00;7.63;;;7.03;;
2061;SDS011;11070;51.336;12.340;2023-06-22T09:43:26;8.20;;;7.53;;
2061;SDS011;11070;51.336;12.340;2023-06-22T09:45:52;8.70;;;8.10;;
2061;SDS011;11070;51.336;12.340;2023-06-22T09:48:18;9.23;;;8.30;;
2061;SDS011;11070;51.336;12.340;2023-06-22T09:50:43;11.23;;;8.47;;
2061;SDS011;11070;51.336;12.340;2023-06-22T09:53:09;8.40;;;7.70;;
2061;SDS011;11070;51.336;12.340;2023-06-22T09:55:34;8.77;;;7.93;;
2061;SDS011;11070;51.336;12.340;2023-06-22T09:58:00;8.60;;;8.00;;
2061;SDS011;11070;51.336;12.340;2023-06-22T10:00:26;9.13;;;8.20;;
2061;SDS011;11070;51.336;12.340;2023-06-22T10:02:51;8.53;;;7.97;;
2061;SDS011;11070;51.336;12.340;2023-06-22T10:05:17;8.30;;;7.60;;
2061;SDS011;11070;51.336;12.340;2023-06-22T10:07:43;9.10;;;8.40;;
2061;SDS011;11070;51.336;12.340;2023-06-22T10:10:12;8.90;;;8.20;;
2061;SDS011;11070;51.336;12.340;2023-06-22T10:12:43;7.97;;;7.47;;
2061;SDS011;11070;51.336;12.340;2023-06-22T10:15:13;7.90;;;7.30;;
2061;SDS011;11070;51.336;12.340;2023-06-22T10:17:39;7.47;;;6.97;;
2061;SDS011;11070;51.336;12.340;2023-06-22T10:20:06;8.17;;;7.53;;
2061;SDS011;11070;51.336;12.340;2023-06-22T10:22:41;8.10;;;7.40;;
2061;SDS011;11070;51.336;12.340;2023-06-22T10:25:08;8.13;;;7.50;;
2061;SDS011;11070;51.336;12.340;2023-06-22T10:27:35;7.80;;;7.20;;
2061;SDS011;11070;51.336;12.340;2023-06-22T10:30:01;7.93;;;7.43;;
2061;SDS011;11070;51.336;12.340;2023-06-22T10:32:27;8.33;;;7.83;;
2061;SDS011;11070;51.336;12.340;2023-06-22T10:34:53;7.80;;;7.20;;
2061;SDS011;11070;51.336;12.340;2023-06-22T10:37:19;7.63;;;7.13;;
2061;SDS011;11070;51.336;12.340;2023-06-22T10:39:45;8.23;;;7.63;;
2061;SDS011;11070;51.336;12.340;2023-06-22T10:42:11;7.87;;;7.37;;
2061;SDS011;11070;51.336;12.340;2023-06-22T10:44:37;8.60;;;8.00;;
2061;SDS011;11070;51.336;12.340;2023-06-22T10:47:05;8.50;;;7.90;;
2061;SDS011;11070;51.336;12.340;2023-06-22T10:49:31;8.20;;;7.60;;
2061;SDS011;11070;51.336;12.340;2023-06-22T10:51:57;7.17;;;6.67;;
2061;SDS011;11070;51.336;12.340;2023-06-22T10:54:23;7.60;;;6.97;;
2061;SDS011;11070;51.336;12.340;2023-06-22T10:56:48;8.20;;;7.70;;
2061;SDS011;11070;51.336;12.340;2023-06-22T10:59:16;8.70;;;8.00;;
2061;SDS011;11070;51.336;12.340;2023-06-22T11:01:41;7.93;;;7.43;;
2061;SDS011;11070;51.336;12.340;2023-06-22T11:04:07;7.70;;;7.20;;
2061;SDS011;11070;51.336;12.340;2023-06-22T11:06:33;8.40;;;7.80;;
2061;SDS011;11070;51.336;12.340;2023-06-22T11:08:58;8.63;;;8.00;;
2061;SDS011;11070;51.336;12.340;2023-06-22T11:11:25;8.53;;;7.87;;
2061;SDS011;11070;51.336;12.340;2023-06-22T11:13:50;7.93;;;7.43;;
2061;SDS011;11070;51.336;12.340;2023-06-22T11:16:17;9.17;;;8.57;;
2061;SDS011;11070;51.336;12.340;2023-06-22T11:18:43;7.73;;;7.23;;
2061;SDS011;11070;51.336;12.340;2023-06-22T11:21:08;8.20;;;7.60;;
2061;SDS011;11070;51.336;12.340;2023-06-22T11:23:34;9.00;;;8.40;;
2061;SDS011;11070;51.336;12.340;2023-06-22T11:26:00;8.57;;;7.87;;
2061;SDS011;11070;51.336;12.340;2023-06-22T11:28:25;8.00;;;7.50;;
2061;SDS011;11070;51.336;12.340;2023-06-22T11:30:52;8.90;;;7.70;;
2061;SDS011;11070;51.336;12.340;2023-06-22T11:33:18;7.97;;;7.27;;
2061;SDS011;11070;51.336;12.340;2023-06-22T11:35:44;8.87;;;8.27;;
2061;SDS011;11070;51.336;12.340;2023-06-22T11:38:09;9.83;;;8.83;;
2061;SDS011;11070;51.336;12.340;2023-06-22T11:40:35;8.90;;;8.20;;
2061;SDS011;11070;51.336;12.340;2023-06-22T11:43:01;9.57;;;8.90;;
2061;SDS011;11070;51.336;12.340;2023-06-22T11:45:27;9.63;;;8.93;;
2061;SDS011;11070;51.336;12.340;2023-06-22T11:47:53;9.70;;;8.90;;
2061;SDS011;11070;51.336;12.340;2023-06-22T11:50:19;9.27;;;8.67;;
2061;SDS011;11070;51.336;12.340;2023-06-22T11:52:44;9.40;;;8.70;;
2061;SDS011;11070;51.336;12.340;2023-06-22T11:55:10;9.33;;;8.70;;
2061;SDS011;11070;51.336;12.340;2023-06-22T11:57:36;8.70;;;8.10;;
2061;SDS011;11070;51.336;12.340;2023-06-22T12:00:03;8.90;;;8.30;;
2061;SDS011;11070;51.336;12.340;2023-06-22T12:02:42;9.40;;;8.60;;
2061;SDS011;11070;51.336;12.340;2023-06-22T12:05:10;9.20;;;8.30;;
2061;SDS011;11070;51.336;12.340;2023-06-22T12:07:35;9.63;;;8.90;;
2061;SDS011;11070;51.336;12.340;2023-06-22T12:10:02;9.20;;;8.43;;
2061;SDS011;11070;51.336;12.340;2023-06-22T12:12:28;9.60;;;8.60;;
2061;SDS011;11070;51.336;12.340;2023-06-22T12:14:54;9.43;;;8.80;;
2061;SDS011;11070;51.336;12.340;2023-06-22T12:17:19;9.40;;;8.80;;
2061;SDS011;11070;51.336;12.340;2023-06-22T12:19:45;8.80;;;8.10;;
2061;SDS011;11070;51.336;12.340;2023-06-22T12:22:11;8.80;;;8.20;;
2061;SDS011;11070;51.336;12.340;2023-06-22T12:24:36;9.77;;;9.07;;
2061;SDS011;11070;51.336;12.340;2023-06-22T12:27:02;8.57;;;7.93;;
2061;SDS011;11070;51.336;12.340;2023-06-22T12:29:28;8.77;;;8.17;;
2061;SDS011;11070;51.336;12.340;2023-06-22T12:31:54;9.20;;;8.27;;
2061;SDS011;11070;51.336;12.340;2023-06-22T12:34:20;9.10;;;8.40;;
2061;SDS011;11070;51.336;12.340;2023-06-22T12:36:45;9.27;;;8.50;;
2061;SDS011;11070;51.336;12.340;2023-06-22T12:39:13;8.53;;;7.93;;
2061;SDS011;11070;51.336;12.340;2023-06-22T12:41:39;8.80;;;7.93;;
2061;SDS011;11070;51.336;12.340;2023-06-22T12:44:04;10.03;;;9.20;;
2061;SDS011;11070;51.336;12.340;2023-06-22T12:46:30;8.40;;;7.80;;
2061;SDS011;11070;51.336;12.340;2023-06-22T12:49:02;8.83;;;8.23;;
2061;SDS011;11070;51.336;12.340;2023-06-22T12:51:29;8.63;;;7.87;;
2061;SDS011;11070;51.336;12.340;2023-06-22T12:53:55;9.40;;;8.70;;
2061;SDS011;11070;51.336;12.340;2023-06-22T12:56:21;10.00;;;9.20;;
2061;SDS011;11070;51.336;12.340;2023-06-22T12:58:46;9.37;;;8.67;;
2061;SDS011;11070;51.336;12.340;2023-06-22T13:01:12;8.37;;;7.87;;
2061;SDS011;11070;51.336;12.340;2023-06-22T13:03:37;9.47;;;8.70;;
2061;SDS011;11070;51.336;12.340;2023-06-22T13:06:03;10.20;;;9.50;;
2061;SDS011;11070;51.336;12.340;2023-06-22T13:08:29;9.50;;;8.80;;
2061;SDS011;11070;51.336;12.340;2023-06-22T13:10:55;9.87;;;8.87;;
2061;SDS011;11070;51.336;12.340;2023-06-22T13:13:23;10.23;;;9.13;;
2061;SDS011;11070;51.336;12.340;2023-06-22T13:15:51;9.10;;;8.50;;
2061;SDS011;11070;51.336;12.340;2023-06-22T13:18:18;9.43;;;8.73;;
2061;SDS011;11070;51.336;12.340;2023-06-22T13:20:43;9.67;;;8.87;;
2061;SDS011;11070;51.336;12.340;2023-06-22T13:23:10;9.27;;;8.40;;
2061;SDS011;11070;51.336;12.340;2023-06-22T13:25:36;10.30;;;9.43;;
2061;SDS011;11070;51.336;12.340;2023-06-22T13:28:02;9.80;;;8.90;;
2061;SDS011;11070;51.336;12.340;2023-06-22T13:30:28;9.63;;;8.90;;
2061;SDS011;11070;51.336;12.340;2023-06-22T13:32:54;9.70;;;9.00;;
2061;SDS011;11070;51.336;12.340;2023-06-22T13:35:20;9.90;;;9.20;;
2061;SDS011;11070;51.336;12.340;2023-06-22T13:37:46;8.80;;;8.20;;
2061;SDS011;11070;51.336;12.340;2023-06-22T13:40:11;8.90;;;8.30;;
2061;SDS011;11070;51.336;12.340;2023-06-22T13:42:37;10.60;;;9.70;;
2061;SDS011;11070;51.336;12.340;2023-06-22T13:45:04;9.37;;;8.57;;
2061;SDS011;11070;51.336;12.340;2023-06-22T13:47:31;9.33;;;8.73;;
2061;SDS011;11070;51.336;12.340;2023-06-22T13:49:57;9.73;;;9.03;;
2061;SDS011;11070;51.336;12.340;2023-06-22T13:52:23;10.20;;;9.40;;
2061;SDS011;11070;51.336;12.340;2023-06-22T13:54:52;9.20;;;8.60;;
2061;SDS011;11070;51.336;12.340;2023-06-22T13:57:17;12.63;;;8.73;;
2061;SDS011;11070;51.336;12.340;2023-06-22T13:59:43;10.33;;;9.40;;
2061;SDS011;11070;51.336;12.340;2023-06-22T14:02:09;10.30;;;9.33;;
2061;SDS011;11070;51.336;12.340;2023-06-22T14:04:34;10.77;;;9.93;;
2061;SDS011;11070;51.336;12.340;2023-06-22T14:07:00;10.33;;;9.37;;
2061;SDS011;11070;51.336;12.340;2023-06-22T14:09:26;10.83;;;9.83;;
2061;SDS011;11070;51.336;12.340;2023-06-22T14:11:53;11.37;;;9.73;;
2061;SDS011;11070;51.336;12.340;2023-06-22T14:14:19;11.00;;;10.00;;
2061;SDS011;11070;51.336;12.340;2023-06-22T14:16:45;10.13;;;9.33;;
2061;SDS011;11070;51.336;12.340;2023-06-22T14:19:11;10.13;;;9.33;;
2061;SDS011;11070;51.336;12.340;2023-06-22T14:21:37;10.07;;;9.40;;
2061;SDS011;11070;51.336;12.340;2023-06-22T14:24:02;10.00;;;9.17;;
2061;SDS011;11070;51.336;12.340;2023-06-22T14:26:28;10.50;;;9.80;;
2061;SDS011;11070;51.336;12.340;2023-06-22T14:28:54;9.47;;;8.67;;
2061;SDS011;11070;51.336;12.340;2023-06-22T14:31:21;9.70;;;9.00;;